Aeroporto :
LOGIN :

Iscrizione | Disclaimer

   EN    FR    IT 

 










Sommario :    VFR   VFR Marginale   IFR   IFR Intensivo   IFR Molto Intensivo
Visibilità : 
Base nubi : 
>= 8 km
>= 3000ft
5 / 8 km
1000 / 3000 ft
1500m / 5 km
500 / 1000 ft
800 / 1500m
200 / 500 ft
< 800m
< 200 ft
Simboli :   Temporali  Nebbia  Neve Forte  Precipitazioni Forti  Vento > 20 kt
SIGMETs :   Varie  Temporali  Ghiacco  Turbolenza  Onda orograficha  Ceneri Vulcaniche






- Altitudine del aeroporto : 13 ft
- Codice IATA : SNR


LFRZ - St-Nazaire

ULTIMO METAR :
  • 192230Z AUTO 22011KT 9999 OVC047 11/08 Q1024 TEMPO 4500 -RA BKN014 BKN030

METARs OBSOLETI :
  • 192200Z AUTO 23013KT 9999 OVC045 11/08 Q1024 TEMPO 4500 -RA BKN014 BKN030
  • 192130Z AUTO 22010KT 9999 FEW026 OVC045 10/08 Q1024 TEMPO 4500 -RA BKN014 BKN030
  • 192100Z AUTO 23012KT 9999 FEW016 BKN034 OVC041 10/07 Q1024 TEMPO 4500 -RA BKN014 BKN030
  • 192030Z AUTO 23012KT 9999 FEW026 BKN048 11/08 Q1025 TEMPO 4500 -RA BKN014 BKN030
  • 192000Z AUTO 22010KT 9999 FEW024 BKN048 10/09 Q1025 TEMPO 4500 -RA BKN014 BKN030
  • 191930Z AUTO 22011KT CAVOK 10/09 Q1025 TEMPO 4500 -RA BKN014 BKN030

TAF TAF LFRZ
Valido dal 19 a 18 ore il 20 a 18 ore UTC


191700Z 1918/2018 24015KT 9999 SCT020 BKN045
BECMG 2005/2007 23015G25KT
PROB40
TEMPO 1920/2011 4500 -RA BKN014 BKN030
BECMG 2011/2013 23020G30KT
TEMPO 2014/2017 24025G40KT 3000 RA BKN012 BKN040
FM201700 32012KT 9999 SCT040



MetMap, La meteo Aeronautica in un colpo d'occhio ! - Copyright ORBIFLY Dicembre 2007 - Disclaimer

ORBIFLY MET'MAP TEAM :

Programmazione e sviluppo : Alexandra Zaïnal
Concezione : Baudouin d'Aumeries
Aiuto per la programmazione : Marc-Olivier Méhu
Supporto tecnico e logistico : Manuel Goepfert
Aiuto per la traduzione : Arnaldo La Scala

Contatto : metmap@orbifly.com




FONTI E CREDITI :

   NOAA